createdAt,value
2017-06-10T00:00:24.800Z,89.60
2017-06-10T00:02:52.303Z,90.00
2017-06-10T00:05:20.617Z,90.20
2017-06-10T00:07:48.123Z,90.20
2017-06-10T00:10:15.653Z,90.20
2017-06-10T00:12:43.155Z,90.50
2017-06-10T00:15:11.423Z,90.90
2017-06-10T00:17:38.943Z,90.90
2017-06-10T00:20:06.451Z,91.00
2017-06-10T00:22:34.747Z,91.10
2017-06-10T00:25:02.251Z,91.00
2017-06-10T00:27:29.776Z,91.20
2017-06-10T00:29:57.294Z,91.30
2017-06-10T00:32:25.565Z,91.40
2017-06-10T00:34:53.087Z,91.30
2017-06-10T00:37:20.596Z,91.70
2017-06-10T00:39:48.863Z,91.70
2017-06-10T00:42:16.383Z,91.70
2017-06-10T00:44:43.891Z,91.70
2017-06-10T00:47:11.420Z,91.60
2017-06-10T00:49:38.923Z,91.80
2017-06-10T00:52:06.424Z,91.70
2017-06-10T00:54:33.947Z,91.60
2017-06-10T00:57:01.465Z,91.60
2017-06-10T00:59:29.760Z,91.60
2017-06-10T01:01:57.275Z,91.60
2017-06-10T01:04:24.773Z,91.60
2017-06-10T01:06:52.294Z,91.60
2017-06-10T01:09:19.797Z,91.60
2017-06-10T01:11:47.323Z,91.60
2017-06-10T01:14:14.823Z,91.90
2017-06-10T01:16:42.334Z,91.70
2017-06-10T01:19:09.859Z,91.60
2017-06-10T01:21:37.359Z,91.60
2017-06-10T01:24:04.879Z,91.50
2017-06-10T01:26:32.379Z,91.60
2017-06-10T01:28:59.880Z,91.70
2017-06-10T01:31:27.412Z,91.70
2017-06-10T01:33:55.679Z,92.00
2017-06-10T01:36:23.977Z,92.00
2017-06-10T01:38:51.491Z,92.00
2017-06-10T01:41:18.991Z,92.10
2017-06-10T01:43:46.511Z,91.90
2017-06-10T01:46:14.015Z,91.90
2017-06-10T01:48:41.555Z,91.90
2017-06-10T01:51:09.824Z,92.00
2017-06-10T01:53:38.095Z,92.00
2017-06-10T01:56:06.383Z,92.40
2017-06-10T01:58:34.659Z,91.90
2017-06-10T02:01:02.952Z,92.10
2017-06-10T02:03:30.455Z,92.10
2017-06-10T02:05:57.959Z,92.00
2017-06-10T02:08:25.480Z,92.00
2017-06-10T02:10:52.979Z,91.90
2017-06-10T02:13:20.503Z,91.90
2017-06-10T02:15:48.007Z,91.80
2017-06-10T02:18:15.512Z,91.90
2017-06-10T02:20:43.036Z,91.90
2017-06-10T02:23:10.535Z,91.80
2017-06-10T02:25:38.065Z,91.80
2017-06-10T02:28:05.563Z,91.90
2017-06-10T02:30:33.827Z,91.90
2017-06-10T02:33:01.347Z,91.80
2017-06-10T02:35:28.855Z,92.10
2017-06-10T02:37:57.139Z,92.00
2017-06-10T02:40:25.411Z,92.00
2017-06-10T02:42:52.935Z,92.00
2017-06-10T02:45:20.430Z,92.10
2017-06-10T02:47:48.698Z,92.00
2017-06-10T02:50:16.988Z,92.10
2017-06-10T02:52:44.491Z,92.00
2017-06-10T02:55:12.014Z,92.10
2017-06-10T02:57:39.522Z,92.10
2017-06-10T03:00:07.025Z,92.10
2017-06-10T03:02:34.547Z,92.20
2017-06-10T03:05:02.048Z,92.20
2017-06-10T03:07:29.571Z,92.20
2017-06-10T03:09:57.080Z,92.10
2017-06-10T03:12:24.590Z,92.00
2017-06-10T03:14:52.111Z,92.00
2017-06-10T03:17:19.615Z,92.00
2017-06-10T03:19:47.920Z,91.90
2017-06-10T03:22:15.432Z,91.80
2017-06-10T03:24:42.934Z,92.10
2017-06-10T03:27:10.461Z,92.20
2017-06-10T03:29:37.963Z,92.00
2017-06-10T03:32:05.500Z,91.90
2017-06-10T03:34:33.008Z,91.90
2017-06-10T03:37:00.513Z,91.90
2017-06-10T03:39:28.037Z,92.00
2017-06-10T03:41:55.543Z,91.60
2017-06-10T03:44:23.067Z,91.80
2017-06-10T03:46:51.347Z,91.60
2017-06-10T03:49:19.622Z,91.90
2017-06-10T03:51:47.907Z,91.70
2017-06-10T03:54:16.175Z,91.80
2017-06-10T03:56:44.467Z,92.10
2017-06-10T03:59:12.735Z,91.90
2017-06-10T04:01:41.006Z,91.90
2017-06-10T04:04:08.528Z,91.90
2017-06-10T04:06:36.031Z,92.10
2017-06-10T04:09:03.567Z,91.90
2017-06-10T04:11:31.077Z,92.00
2017-06-10T04:13:58.581Z,91.80
2017-06-10T04:16:26.102Z,91.10
2017-06-10T04:18:53.616Z,88.80
2017-06-10T04:21:21.920Z,83.10
2017-06-10T04:23:49.424Z,82.80
2017-06-10T04:26:16.923Z,81.50
2017-06-10T04:28:44.449Z,80.60
2017-06-10T04:31:11.960Z,80.80
2017-06-10T04:33:39.487Z,81.80
2017-06-10T04:36:06.986Z,82.60
2017-06-10T04:38:34.492Z,85.20
2017-06-10T04:41:02.783Z,86.80
2017-06-10T04:43:30.287Z,86.90
2017-06-10T04:45:57.812Z,85.70
2017-06-10T04:48:25.321Z,85.40
2017-06-10T04:50:52.823Z,84.70
2017-06-10T04:53:20.341Z,82.80
2017-06-10T04:55:47.839Z,82.50
2017-06-10T04:58:15.361Z,83.40
2017-06-10T05:00:42.859Z,84.70
2017-06-10T05:03:10.355Z,85.80
2017-06-10T05:05:37.878Z,86.70
2017-06-10T05:08:05.379Z,87.80
2017-06-10T05:10:32.904Z,88.90
2017-06-10T05:13:00.416Z,88.20
2017-06-10T05:15:27.920Z,88.30
2017-06-10T05:17:55.439Z,87.80
2017-06-10T05:20:23.710Z,87.90
2017-06-10T05:22:51.259Z,87.10
2017-06-10T05:25:18.765Z,88.20
2017-06-10T05:27:46.267Z,86.90
2017-06-10T05:30:13.784Z,85.90
2017-06-10T05:32:41.305Z,86.60
2017-06-10T05:35:09.599Z,86.80
2017-06-10T05:37:37.099Z,86.40
2017-06-10T05:40:04.599Z,86.60
2017-06-10T05:42:32.878Z,84.40
2017-06-10T05:45:01.147Z,85.40
2017-06-10T05:47:28.676Z,84.90
2017-06-10T05:49:56.186Z,85.20
2017-06-10T05:52:23.687Z,84.30
2017-06-10T05:54:51.207Z,84.10
2017-06-10T05:57:18.711Z,84.20
2017-06-10T05:59:46.236Z,84.30
2017-06-10T06:02:13.744Z,84.60
2017-06-10T06:04:41.248Z,83.60
2017-06-10T06:07:08.762Z,83.90
2017-06-10T06:09:36.266Z,82.50
2017-06-10T06:12:03.786Z,81.90
2017-06-10T06:14:31.288Z,81.40
2017-06-10T06:16:58.787Z,80.90
2017-06-10T06:19:26.307Z,80.50
2017-06-10T06:21:53.811Z,80.30
2017-06-10T06:24:21.335Z,80.50
2017-06-10T06:26:48.837Z,80.80
2017-06-10T06:29:17.111Z,81.70
2017-06-10T06:31:44.627Z,81.60
2017-06-10T06:34:12.127Z,79.40
2017-06-10T06:36:39.650Z,80.80
2017-06-10T06:39:07.159Z,79.60
2017-06-10T06:41:35.436Z,81.10
2017-06-10T06:44:02.956Z,81.10
2017-06-10T06:46:30.456Z,81.70
2017-06-10T06:48:57.979Z,82.60
2017-06-10T06:51:25.472Z,84.50
2017-06-10T06:53:52.994Z,82.80
2017-06-10T06:56:20.499Z,79.90
2017-06-10T06:58:47.999Z,78.30
2017-06-10T07:01:15.520Z,76.50
2017-06-10T07:03:43.023Z,77.30
2017-06-10T07:06:10.547Z,77.90
2017-06-10T07:08:38.047Z,79.50
2017-06-10T07:11:05.551Z,80.60
2017-06-10T07:13:33.068Z,80.70
2017-06-10T07:16:00.572Z,79.40
2017-06-10T07:18:28.092Z,74.50
2017-06-10T07:20:55.595Z,75.80
2017-06-10T07:23:23.095Z,73.10
2017-06-10T07:25:50.619Z,73.60
2017-06-10T07:28:18.123Z,72.20
2017-06-10T07:30:45.641Z,72.90
2017-06-10T07:33:13.146Z,72.50
2017-06-10T07:35:40.653Z,72.20
2017-06-10T07:38:08.171Z,69.00
2017-06-10T07:40:36.439Z,68.20
2017-06-10T07:43:03.966Z,68.10
2017-06-10T07:45:31.467Z,68.10
2017-06-10T07:47:58.968Z,67.20
2017-06-10T07:50:26.486Z,66.50
2017-06-10T07:52:53.984Z,65.20
2017-06-10T07:55:21.507Z,63.00
2017-06-10T07:57:49.011Z,61.10
2017-06-10T08:00:16.531Z,60.20
2017-06-10T08:02:44.035Z,59.00
2017-06-10T08:05:11.539Z,59.60
2017-06-10T08:07:39.059Z,59.00
2017-06-10T08:10:06.559Z,59.10
2017-06-10T08:12:34.084Z,54.50
2017-06-10T08:15:01.598Z,55.80
2017-06-10T08:17:29.099Z,58.20
2017-06-10T08:19:56.619Z,60.50
2017-06-10T08:22:24.123Z,59.70
2017-06-10T08:24:51.647Z,63.40
2017-06-10T08:27:19.148Z,63.00
2017-06-10T08:29:46.651Z,63.40
2017-06-10T08:32:14.167Z,60.60
2017-06-10T08:34:41.672Z,61.30
2017-06-10T08:37:09.192Z,62.50
2017-06-10T08:39:36.699Z,57.90
2017-06-10T08:42:04.208Z,59.00
2017-06-10T08:44:31.727Z,57.00
2017-06-10T08:46:59.232Z,53.60
2017-06-10T08:49:26.759Z,55.40
2017-06-10T08:51:54.263Z,57.10
2017-06-10T08:54:21.772Z,55.70
2017-06-10T08:56:49.295Z,57.50
2017-06-10T08:59:16.796Z,53.80
2017-06-10T09:01:44.339Z,52.70
2017-06-10T09:04:11.843Z,50.70
2017-06-10T09:06:39.346Z,53.60
2017-06-10T09:09:06.875Z,53.00
2017-06-10T09:11:34.380Z,55.20
2017-06-10T09:14:01.887Z,52.60
2017-06-10T09:16:29.411Z,54.80
2017-06-10T09:18:57.687Z,54.30
2017-06-10T09:21:25.187Z,54.30
2017-06-10T09:23:52.703Z,54.90
2017-06-10T09:26:20.967Z,55.60
2017-06-10T09:28:48.471Z,55.50
2017-06-10T09:31:15.994Z,51.80
2017-06-10T09:33:44.255Z,56.50
2017-06-10T09:36:11.752Z,56.60
2017-06-10T09:38:39.283Z,52.80
2017-06-10T09:41:07.547Z,52.30
2017-06-10T09:43:35.051Z,52.20
2017-06-10T09:46:02.570Z,48.50
2017-06-10T09:48:30.076Z,50.10
2017-06-10T09:50:57.575Z,47.20
2017-06-10T09:53:25.119Z,53.60
2017-06-10T09:55:52.623Z,53.50
2017-06-10T09:58:20.127Z,53.80
2017-06-10T10:00:47.647Z,55.70
2017-06-10T10:03:15.148Z,52.10
2017-06-10T10:05:42.648Z,48.50
2017-06-10T10:08:10.171Z,47.20
2017-06-10T10:10:37.667Z,47.20
2017-06-10T10:13:05.167Z,49.30
2017-06-10T10:15:32.691Z,49.40
2017-06-10T10:18:00.187Z,49.10
2017-06-10T10:20:27.683Z,50.40
2017-06-10T10:22:56.144Z,53.30
2017-06-10T10:25:23.647Z,53.30
2017-06-10T10:27:51.151Z,51.40
2017-06-10T10:30:18.671Z,50.20
2017-06-10T10:32:46.179Z,48.70
2017-06-10T10:35:13.677Z,50.60
2017-06-10T10:37:41.199Z,52.80
2017-06-10T10:40:08.699Z,47.40
2017-06-10T10:42:36.223Z,49.20
2017-06-10T10:45:03.724Z,52.10
2017-06-10T10:47:31.227Z,52.10
2017-06-10T10:49:58.743Z,46.50
2017-06-10T10:52:26.242Z,51.30
2017-06-10T10:54:53.750Z,48.70
2017-06-10T10:57:21.267Z,46.70
2017-06-10T10:59:48.763Z,48.10
2017-06-10T11:02:16.265Z,47.30
2017-06-10T11:04:43.787Z,48.30
2017-06-10T11:07:11.283Z,48.70
2017-06-10T11:09:38.814Z,51.50
2017-06-10T11:12:06.314Z,47.90
2017-06-10T11:14:33.819Z,46.70
2017-06-10T11:17:01.341Z,46.90
2017-06-10T11:19:29.607Z,46.00
2017-06-10T11:21:57.132Z,46.00
2017-06-10T11:24:24.639Z,46.90
2017-06-10T11:26:52.904Z,45.10
2017-06-10T11:29:20.422Z,45.10
2017-06-10T11:31:47.924Z,47.50
2017-06-10T11:34:16.206Z,46.70
2017-06-10T11:36:43.708Z,46.70
2017-06-10T11:39:11.211Z,48.60
2017-06-10T11:41:38.736Z,49.40
2017-06-10T11:44:06.235Z,50.50
2017-06-10T11:46:33.763Z,50.80
2017-06-10T11:49:02.067Z,47.30
2017-06-10T11:51:30.326Z,46.40
2017-06-10T11:53:57.844Z,46.30
2017-06-10T11:56:25.347Z,47.30
2017-06-10T11:58:52.871Z,47.60
2017-06-10T12:01:20.375Z,46.50
2017-06-10T12:03:48.638Z,49.50
2017-06-10T12:06:16.187Z,49.40
2017-06-10T12:08:43.689Z,47.00
2017-06-10T12:11:11.183Z,48.50
2017-06-10T12:13:38.704Z,47.50
2017-06-10T12:16:06.207Z,43.00
2017-06-10T12:18:33.717Z,46.70
2017-06-10T12:21:01.251Z,46.30
2017-06-10T12:23:28.762Z,46.60
2017-06-10T12:25:56.267Z,45.70
2017-06-10T12:28:23.797Z,47.40
2017-06-10T12:30:51.301Z,44.20
2017-06-10T12:33:19.567Z,44.50
2017-06-10T12:35:47.866Z,44.80
2017-06-10T12:38:15.369Z,44.70
2017-06-10T12:40:42.867Z,44.80
2017-06-10T12:43:11.155Z,45.20
2017-06-10T12:45:38.655Z,45.20
2017-06-10T12:48:06.155Z,45.60
2017-06-10T12:50:33.683Z,45.80
2017-06-10T12:53:01.183Z,43.90
2017-06-10T12:55:28.687Z,44.90
2017-06-10T12:57:56.217Z,42.00
2017-06-10T13:00:23.719Z,42.90
2017-06-10T13:02:51.219Z,43.30
2017-06-10T13:05:18.743Z,48.00
2017-06-10T13:07:46.239Z,45.50
2017-06-10T13:10:13.743Z,47.10
2017-06-10T13:12:41.268Z,42.80
2017-06-10T13:15:08.770Z,41.90
2017-06-10T13:17:36.271Z,45.10
2017-06-10T13:20:03.797Z,47.10
2017-06-10T13:22:31.299Z,43.50
2017-06-10T13:24:58.823Z,46.40
2017-06-10T13:27:27.098Z,46.60
2017-06-10T13:29:55.367Z,43.10
2017-06-10T13:32:23.651Z,43.80
2017-06-10T13:34:51.921Z,42.50
2017-06-10T13:37:20.220Z,42.40
2017-06-10T13:39:47.723Z,42.50
2017-06-10T13:42:15.223Z,43.90
2017-06-10T13:44:42.747Z,44.80
2017-06-10T13:47:10.248Z,42.70
2017-06-10T13:49:37.747Z,45.40
2017-06-10T13:52:05.271Z,45.90
2017-06-10T13:54:32.783Z,43.70
2017-06-10T13:57:00.283Z,42.90
2017-06-10T13:59:27.984Z,43.20
2017-06-10T14:01:55.478Z,42.20
2017-06-10T14:04:22.981Z,43.30
2017-06-10T14:06:50.507Z,46.70
2017-06-10T14:09:18.775Z,42.10
2017-06-10T14:11:47.043Z,43.60
2017-06-10T14:14:14.572Z,43.50
2017-06-10T14:16:42.076Z,44.10
2017-06-10T14:19:10.343Z,45.30
2017-06-10T14:21:38.639Z,44.80
2017-06-10T14:24:06.139Z,44.70
2017-06-10T14:26:33.643Z,44.70
2017-06-10T14:29:01.935Z,45.80
2017-06-10T14:31:29.438Z,45.80
2017-06-10T14:33:56.939Z,45.60
2017-06-10T14:36:25.227Z,48.20
2017-06-10T14:38:52.734Z,48.20
2017-06-10T14:41:20.240Z,46.50
2017-06-10T14:43:47.767Z,44.40
2017-06-10T14:46:15.280Z,44.70
2017-06-10T14:48:42.779Z,46.40
2017-06-10T14:51:10.299Z,45.20
2017-06-10T14:53:37.800Z,45.30
2017-06-10T14:56:05.299Z,44.40
2017-06-10T14:58:32.826Z,46.80
2017-06-10T15:01:01.107Z,45.30
2017-06-10T15:03:29.375Z,46.40
2017-06-10T15:05:57.672Z,45.80
2017-06-10T15:08:25.175Z,45.10
2017-06-10T15:10:52.671Z,47.10
2017-06-10T15:13:20.200Z,46.60
2017-06-10T15:15:47.702Z,46.90
2017-06-10T15:18:15.232Z,43.30
2017-06-10T15:20:42.756Z,45.70
2017-06-10T15:23:10.263Z,45.10
2017-06-10T15:25:37.768Z,47.20
2017-06-10T15:28:05.292Z,47.90
2017-06-10T15:30:32.791Z,46.00
2017-06-10T15:33:00.289Z,46.80
2017-06-10T15:35:27.819Z,47.50
2017-06-10T15:37:55.355Z,46.70
2017-06-10T15:40:22.855Z,46.00
2017-06-10T15:42:50.379Z,49.30
2017-06-10T15:45:17.888Z,47.30
2017-06-10T15:47:46.155Z,47.50
2017-06-10T15:50:13.679Z,47.50
2017-06-10T15:52:41.180Z,47.00
2017-06-10T15:55:09.448Z,47.50
2017-06-10T15:57:36.967Z,47.40
2017-06-10T16:00:04.462Z,45.50
2017-06-10T16:02:31.964Z,45.60
2017-06-10T16:04:59.490Z,45.60
2017-06-10T16:07:26.987Z,47.30
2017-06-10T16:09:54.491Z,47.20
2017-06-10T16:12:22.015Z,46.70
2017-06-10T16:14:49.523Z,45.90
2017-06-10T16:17:17.788Z,46.60
2017-06-10T16:19:45.335Z,46.60
2017-06-10T16:22:12.836Z,47.00
2017-06-10T16:24:40.339Z,48.80
2017-06-10T16:27:07.864Z,49.00
2017-06-10T16:29:35.371Z,47.70
2017-06-10T16:32:02.866Z,49.00
2017-06-10T16:34:30.387Z,47.90
2017-06-10T16:36:57.892Z,46.30
2017-06-10T16:39:25.395Z,48.20
2017-06-10T16:41:52.919Z,47.50
2017-06-10T16:44:20.427Z,47.70
2017-06-10T16:46:47.929Z,46.20
2017-06-10T16:49:15.459Z,47.40
2017-06-10T16:51:43.727Z,47.60
2017-06-10T16:54:11.231Z,47.60
2017-06-10T16:56:38.780Z,50.90
2017-06-10T16:59:06.283Z,50.30
2017-06-10T17:01:33.787Z,49.20
2017-06-10T17:04:01.307Z,48.50
2017-06-10T17:06:28.807Z,48.60
2017-06-10T17:08:56.312Z,47.30
2017-06-10T17:11:23.836Z,47.60
2017-06-10T17:13:51.331Z,51.00
2017-06-10T17:16:18.831Z,49.00
2017-06-10T17:18:46.355Z,49.50
2017-06-10T17:21:13.856Z,48.70
2017-06-10T17:23:41.355Z,48.70
2017-06-10T17:26:08.875Z,49.10
2017-06-10T17:28:36.379Z,48.20
2017-06-10T17:31:03.899Z,47.50
2017-06-10T17:33:31.403Z,48.50
2017-06-10T17:35:58.894Z,48.50
2017-06-10T17:38:26.415Z,47.70
2017-06-10T17:40:53.915Z,47.20
2017-06-10T17:43:21.416Z,49.80
2017-06-10T17:45:48.943Z,49.70
2017-06-10T17:48:16.438Z,48.60
2017-06-10T17:50:43.939Z,48.70
2017-06-10T17:53:11.475Z,49.40
2017-06-10T17:55:39.747Z,50.40
2017-06-10T17:58:07.250Z,50.40
2017-06-10T18:00:34.804Z,50.50
2017-06-10T18:03:02.299Z,49.50
2017-06-10T18:05:29.800Z,49.90
2017-06-10T18:07:58.083Z,50.40
2017-06-10T18:10:25.590Z,50.40
2017-06-10T18:12:53.091Z,51.00
2017-06-10T18:15:20.614Z,51.00
2017-06-10T18:17:48.116Z,51.00
2017-06-10T18:20:15.620Z,51.30
2017-06-10T18:22:43.143Z,52.10
2017-06-10T18:25:11.435Z,52.60
2017-06-10T18:27:38.942Z,53.20
2017-06-10T18:30:06.463Z,53.50
2017-06-10T18:32:33.967Z,54.00
2017-06-10T18:35:01.470Z,53.80
2017-06-10T18:37:28.995Z,54.20
2017-06-10T18:39:56.497Z,54.70
2017-06-10T18:42:23.999Z,58.30
2017-06-10T18:44:52.289Z,58.40
2017-06-10T18:47:19.786Z,58.30
2017-06-10T18:49:47.291Z,57.40
2017-06-10T18:52:14.815Z,56.80
2017-06-10T18:54:42.316Z,57.00
2017-06-10T18:57:09.828Z,58.10
2017-06-10T18:59:37.361Z,56.90
2017-06-10T19:02:04.863Z,56.60
2017-06-10T19:04:32.363Z,56.60
2017-06-10T19:06:59.883Z,57.70
2017-06-10T19:09:27.388Z,58.20
2017-06-10T19:11:54.886Z,58.70
2017-06-10T19:14:22.412Z,61.40
2017-06-10T19:16:49.916Z,65.20
2017-06-10T19:19:17.415Z,65.20
2017-06-10T19:21:44.939Z,64.20
2017-06-10T19:24:13.206Z,64.20
2017-06-10T19:26:40.704Z,64.20
2017-06-10T19:29:08.235Z,66.10
2017-06-10T19:31:36.504Z,66.60
2017-06-10T19:34:04.780Z,68.30
2017-06-10T19:36:33.067Z,69.40
2017-06-10T19:39:00.566Z,69.00
2017-06-10T19:41:28.087Z,67.80
2017-06-10T19:43:55.597Z,68.70
2017-06-10T19:46:23.097Z,68.30
2017-06-10T19:48:50.623Z,68.70
2017-06-10T19:51:18.132Z,69.50
2017-06-10T19:53:45.635Z,69.30
2017-06-10T19:56:13.154Z,69.60
2017-06-10T19:58:40.655Z,70.70
2017-06-10T20:01:08.163Z,72.30
2017-06-10T20:03:35.684Z,71.60
2017-06-10T20:06:03.187Z,71.00
2017-06-10T20:08:30.691Z,70.80
2017-06-10T20:10:58.219Z,71.80
2017-06-10T20:13:25.714Z,71.50
2017-06-10T20:15:53.218Z,72.30
2017-06-10T20:18:20.743Z,71.70
2017-06-10T20:20:49.011Z,72.10
2017-06-10T20:23:16.511Z,71.20
2017-06-10T20:25:44.032Z,71.00
2017-06-10T20:28:11.532Z,71.40
2017-06-10T20:30:39.036Z,71.70
2017-06-10T20:33:06.563Z,71.40
2017-06-10T20:35:34.071Z,72.20
2017-06-10T20:38:02.335Z,76.50
2017-06-10T20:40:29.855Z,75.80
2017-06-10T20:42:57.360Z,76.00
2017-06-10T20:45:25.630Z,73.20
2017-06-10T20:47:53.160Z,73.10
2017-06-10T20:50:20.660Z,72.60
2017-06-10T20:52:48.931Z,73.30
2017-06-10T20:55:16.463Z,73.30
2017-06-10T20:57:43.969Z,73.20
2017-06-10T21:00:11.472Z,72.70
2017-06-10T21:02:38.992Z,73.50
2017-06-10T21:05:06.500Z,75.10
2017-06-10T21:07:34.003Z,76.10
2017-06-10T21:10:01.533Z,76.40
2017-06-10T21:12:29.036Z,76.50
2017-06-10T21:14:56.535Z,76.80
2017-06-10T21:17:24.067Z,75.60
2017-06-10T21:19:51.567Z,75.00
2017-06-10T21:22:19.839Z,75.60
2017-06-10T21:24:47.371Z,75.30
2017-06-10T21:27:14.871Z,75.10
2017-06-10T21:29:43.141Z,75.00
2017-06-10T21:32:11.439Z,75.70
2017-06-10T21:34:38.943Z,75.70
2017-06-10T21:37:06.454Z,75.10
2017-06-10T21:39:33.995Z,75.50
2017-06-10T21:42:02.255Z,74.60
2017-06-10T21:44:29.755Z,74.60
2017-06-10T21:46:57.279Z,75.00
2017-06-10T21:49:25.559Z,75.40
2017-06-10T21:51:53.823Z,75.00
2017-06-10T21:54:21.363Z,75.00
2017-06-10T21:56:48.874Z,73.70
2017-06-10T21:59:16.375Z,74.60
2017-06-10T22:01:43.904Z,74.70
2017-06-10T22:04:11.404Z,74.70
2017-06-10T22:06:38.903Z,74.40
2017-06-10T22:09:06.427Z,75.10
2017-06-10T22:11:33.931Z,74.60
2017-06-10T22:14:01.435Z,74.80
2017-06-10T22:16:28.963Z,75.00
2017-06-10T22:18:56.467Z,75.30
2017-06-10T22:21:23.969Z,75.20
2017-06-10T22:23:51.504Z,75.40
2017-06-10T22:26:19.003Z,75.70
2017-06-10T22:28:46.506Z,76.30
2017-06-10T22:31:14.034Z,76.50
2017-06-10T22:33:41.536Z,76.60
2017-06-10T22:36:09.044Z,75.90
2017-06-10T22:38:36.573Z,75.50
2017-06-10T22:41:04.075Z,74.50
2017-06-10T22:43:31.573Z,75.30
2017-06-10T22:45:59.098Z,76.70
2017-06-10T22:48:26.604Z,76.80
2017-06-10T22:50:54.106Z,76.60
2017-06-10T22:53:21.626Z,76.20
2017-06-10T22:55:49.132Z,75.90
2017-06-10T22:58:16.635Z,75.10
2017-06-10T23:00:44.155Z,75.40
2017-06-10T23:03:12.428Z,74.40
2017-06-10T23:05:39.931Z,74.40
2017-06-10T23:08:07.462Z,75.70
2017-06-10T23:10:35.731Z,75.80
2017-06-10T23:13:04.008Z,75.10
2017-06-10T23:15:32.304Z,75.30
2017-06-10T23:17:59.809Z,76.00
2017-06-10T23:20:27.306Z,74.70
2017-06-10T23:22:55.599Z,75.00
2017-06-10T23:25:23.107Z,74.90
2017-06-10T23:27:50.607Z,75.70
2017-06-10T23:30:18.131Z,74.40
2017-06-10T23:32:45.635Z,73.80
2017-06-10T23:35:13.243Z,74.60
2017-06-10T23:37:40.787Z,75.10
2017-06-10T23:40:08.287Z,74.80
2017-06-10T23:42:36.556Z,73.70
2017-06-10T23:45:04.084Z,73.70
2017-06-10T23:47:31.579Z,74.00
2017-06-10T23:49:59.079Z,73.80
2017-06-10T23:52:26.604Z,73.70
2017-06-10T23:54:54.115Z,74.30
2017-06-10T23:57:21.616Z,74.70
2017-06-10T23:59:49.903Z,73.40
